createdAt,value
2023-03-08T00:01:24.978Z,96639.38
2023-03-08T00:07:13.471Z,96641.56
2023-03-08T00:09:59.347Z,96664.19
2023-03-08T00:12:44.763Z,96660.69
2023-03-08T00:15:29.933Z,96679.47
2023-03-08T00:18:15.587Z,96680.41
2023-03-08T00:21:03.635Z,96688.34
2023-03-08T00:23:52.299Z,96662.25
2023-03-08T00:26:37.833Z,96618.91
2023-03-08T00:29:23.522Z,96701.91
2023-03-08T00:32:08.617Z,96690.41
2023-03-08T00:34:54.530Z,96690.75
2023-03-08T00:37:39.705Z,96676.59
2023-03-08T00:40:25.333Z,96700.94
2023-03-08T00:43:10.754Z,96685.47
2023-03-08T00:45:56.649Z,96617.66
2023-03-08T00:48:42.476Z,96671.44
2023-03-08T00:51:29.123Z,96692.28
2023-03-08T00:54:14.816Z,96700.94
2023-03-08T00:57:00.218Z,96696.69
2023-03-08T00:59:45.431Z,96699.16
2023-03-08T01:02:32.318Z,96689.75
2023-03-08T01:05:17.884Z,96695.13
2023-03-08T01:08:03.228Z,96697.78
2023-03-08T01:10:58.862Z,96656.28
2023-03-08T01:13:44.231Z,96690.31
2023-03-08T01:16:31.275Z,96687.72
2023-03-08T01:19:17.777Z,96692.16
2023-03-08T01:22:03.280Z,96677.34
2023-03-08T01:24:49.980Z,96683.81
2023-03-08T01:27:35.438Z,96680.34
2023-03-08T01:30:21.498Z,96678.88
2023-03-08T01:33:06.866Z,96675.06
2023-03-08T01:35:52.698Z,96674.38
2023-03-08T01:38:38.894Z,96671.25
2023-03-08T01:41:30.271Z,96680.34
2023-03-08T01:44:18.185Z,96672.56
2023-03-08T01:47:04.381Z,96668.41
2023-03-08T01:50:10.962Z,96673.84
2023-03-08T01:52:58.607Z,96673.44
2023-03-08T01:55:44.358Z,96664.25
2023-03-08T01:58:30.546Z,96670.38
2023-03-08T02:01:16.024Z,96670.13
2023-03-08T02:04:02.896Z,96657.75
2023-03-08T02:06:49.522Z,96668.13
2023-03-08T02:09:39.585Z,96673.88
2023-03-08T02:12:26.154Z,96609.81
2023-03-08T02:15:17.296Z,96679.41
2023-03-08T02:18:07.332Z,96652.34
2023-03-08T02:20:52.549Z,96623.81
2023-03-08T02:23:38.101Z,96665.72
2023-03-08T02:26:23.740Z,96666.69
2023-03-08T02:29:08.917Z,96664.16
2023-03-08T02:31:54.375Z,96659.84
2023-03-08T02:34:39.611Z,96637.31
2023-03-08T02:37:24.956Z,96663.16
2023-03-08T02:40:11.269Z,96659.59
2023-03-08T02:42:56.693Z,96652.97
2023-03-08T02:45:42.158Z,96655.09
2023-03-08T02:48:27.358Z,96654.81
2023-03-08T02:51:12.763Z,96647.66
2023-03-08T02:53:58.492Z,96651.88
2023-03-08T02:56:43.847Z,96650.72
2023-03-08T02:59:30.864Z,96632.47
2023-03-08T03:02:17.189Z,96646.09
2023-03-08T03:05:05.021Z,96646.75
2023-03-08T03:07:50.495Z,96661.50
2023-03-08T03:13:23.781Z,96650.97
2023-03-08T03:16:13.214Z,96646.47
2023-03-08T03:18:58.660Z,96644.41
2023-03-08T03:21:44.171Z,96651.81
2023-03-08T03:24:29.487Z,96646.69
2023-03-08T03:27:18.802Z,96641.22
2023-03-08T03:30:05.931Z,96640.28
2023-03-08T03:32:51.183Z,96645.13
2023-03-08T03:35:42.088Z,96636.31
2023-03-08T03:38:29.024Z,96638.84
2023-03-08T03:41:18.126Z,96633.44
2023-03-08T03:44:03.977Z,96630.91
2023-03-08T03:46:49.128Z,96634.34
2023-03-08T03:49:40.159Z,96621.94
2023-03-08T03:52:26.230Z,96568.91
2023-03-08T03:55:18.140Z,96636.47
2023-03-08T03:58:03.998Z,96642.63
2023-03-08T04:00:50.684Z,96640.09
2023-03-08T04:03:45.688Z,96651.78
2023-03-08T04:06:33.370Z,96648.53
2023-03-08T04:09:19.617Z,96645.50
2023-03-08T04:12:12.182Z,96655.00
2023-03-08T04:14:58.222Z,96626.47
2023-03-08T04:17:47.799Z,96623.69
2023-03-08T04:20:33.331Z,96641.97
2023-03-08T04:23:19.854Z,96648.84
2023-03-08T04:26:07.679Z,96585.66
2023-03-08T04:28:53.641Z,96645.16
2023-03-08T04:31:39.761Z,96651.53
2023-03-08T04:34:29.230Z,96644.69
2023-03-08T04:37:14.672Z,96642.03
2023-03-08T04:40:03.740Z,96622.25
2023-03-08T04:42:51.715Z,96644.25
2023-03-08T04:45:42.863Z,96623.50
2023-03-08T04:48:30.932Z,96631.03
2023-03-08T04:51:16.844Z,96620.25
2023-03-08T04:54:03.288Z,96628.91
2023-03-08T04:56:48.524Z,96623.72
2023-03-08T04:59:34.526Z,96622.63
2023-03-08T05:02:23.517Z,96594.06
2023-03-08T05:05:09.326Z,96611.91
2023-03-08T05:07:55.111Z,96623.13
2023-03-08T05:10:46.449Z,96625.84
2023-03-08T05:13:35.160Z,96626.16
2023-03-08T05:16:20.741Z,96624.88
2023-03-08T05:19:06.338Z,96620.28
2023-03-08T05:21:57.385Z,96608.69
2023-03-08T05:24:42.986Z,96565.84
2023-03-08T05:27:33.151Z,96609.09
2023-03-08T05:30:19.454Z,96598.41
2023-03-08T05:33:05.652Z,96594.75
2023-03-08T05:35:55.211Z,96597.50
2023-03-08T05:38:42.565Z,96601.06
2023-03-08T05:41:29.636Z,96597.97
2023-03-08T05:44:16.536Z,96581.00
2023-03-08T05:47:01.977Z,96594.22
2023-03-08T05:49:47.410Z,96595.50
2023-03-08T05:52:34.839Z,96604.56
2023-03-08T05:55:20.888Z,96593.94
2023-03-08T05:58:06.411Z,96592.63
2023-03-08T06:00:53.787Z,96592.91
2023-03-08T06:03:39.918Z,96598.56
2023-03-08T06:06:26.615Z,96595.22
2023-03-08T06:09:16.289Z,96592.28
2023-03-08T06:12:02.148Z,96534.41
2023-03-08T06:14:48.190Z,96586.63
2023-03-08T06:17:36.749Z,96587.72
2023-03-08T06:20:23.730Z,96586.25
2023-03-08T06:23:10.933Z,96589.59
2023-03-08T06:25:58.256Z,96590.75
2023-03-08T06:28:45.078Z,96582.41
2023-03-08T06:31:31.665Z,96582.41
2023-03-08T06:34:19.923Z,96578.97
2023-03-08T06:37:08.070Z,96584.28
2023-03-08T06:39:54.072Z,96570.31
2023-03-08T06:42:41.828Z,96579.19
2023-03-08T06:45:32.794Z,96567.88
2023-03-08T06:48:18.324Z,96573.06
2023-03-08T06:51:05.491Z,96566.03
2023-03-08T06:53:50.917Z,96564.63
2023-03-08T06:56:39.994Z,96553.06
2023-03-08T06:59:25.626Z,96530.03
2023-03-08T07:02:11.108Z,96557.16
2023-03-08T07:04:56.536Z,96548.81
2023-03-08T07:07:43.330Z,96555.06
2023-03-08T07:10:29.129Z,96540.84
2023-03-08T07:13:14.326Z,96535.50
2023-03-08T07:15:59.953Z,96523.00
2023-03-08T07:18:45.690Z,96547.25
2023-03-08T07:21:31.052Z,96542.28
2023-03-08T07:24:21.811Z,96496.50
2023-03-08T07:27:07.529Z,96526.63
2023-03-08T07:29:54.696Z,96536.97
2023-03-08T07:32:42.108Z,96534.38
2023-03-08T07:35:28.010Z,96525.84
2023-03-08T07:38:15.494Z,96526.03
2023-03-08T07:41:00.817Z,96522.13
2023-03-08T07:43:46.192Z,96515.81
2023-03-08T07:46:35.660Z,96516.69
2023-03-08T07:49:21.054Z,96510.81
2023-03-08T07:52:06.526Z,96482.31
2023-03-08T07:54:51.563Z,96502.72
2023-03-08T07:57:37.558Z,96479.38
2023-03-08T08:00:26.141Z,96480.94
2023-03-08T08:03:11.713Z,96497.56
2023-03-08T08:05:57.247Z,96484.47
2023-03-08T08:08:42.675Z,96485.66
2023-03-08T08:11:28.261Z,96462.22
2023-03-08T08:14:13.482Z,96451.09
2023-03-08T08:16:58.917Z,96478.31
2023-03-08T08:19:44.392Z,96482.84
2023-03-08T08:22:29.704Z,96474.88
2023-03-08T08:25:14.912Z,96470.03
2023-03-08T08:28:00.306Z,96460.94
2023-03-08T08:30:55.992Z,96462.56
2023-03-08T08:33:41.283Z,96459.81
2023-03-08T08:36:27.822Z,96451.81
2023-03-08T08:39:13.451Z,96456.47
2023-03-08T08:41:59.021Z,96442.38
2023-03-08T08:45:13.308Z,96449.28
2023-03-08T08:47:59.794Z,96393.22
2023-03-08T08:50:45.683Z,96445.25
2023-03-08T08:53:31.419Z,96437.44
2023-03-08T08:56:27.872Z,96435.81
2023-03-08T08:59:17.026Z,96413.63
2023-03-08T09:02:02.267Z,96416.09
2023-03-08T09:04:47.936Z,96420.91
2023-03-08T09:07:33.146Z,96419.22
2023-03-08T09:10:18.930Z,96344.13
2023-03-08T09:13:05.223Z,96398.78
2023-03-08T09:15:50.441Z,96401.19
2023-03-08T09:18:36.085Z,96395.81
2023-03-08T09:21:21.425Z,96399.31
2023-03-08T09:24:07.098Z,96382.72
2023-03-08T09:26:52.219Z,96382.81
2023-03-08T09:29:38.004Z,96377.38
2023-03-08T09:32:23.116Z,96363.63
2023-03-08T09:35:08.957Z,96367.72
2023-03-08T09:37:55.628Z,96363.28
2023-03-08T09:40:59.712Z,96339.63
2023-03-08T09:44:19.167Z,96355.19
2023-03-08T09:47:13.061Z,96330.31
2023-03-08T09:50:09.041Z,96275.69
2023-03-08T09:53:06.289Z,96328.44
2023-03-08T09:56:02.315Z,96317.25
2023-03-08T09:58:53.275Z,96312.75
2023-03-08T10:01:52.069Z,96296.44
2023-03-08T10:05:13.834Z,96290.91
2023-03-08T10:08:09.276Z,96293.78
2023-03-08T10:10:57.182Z,96285.91
2023-03-08T10:13:56.604Z,96286.09
2023-03-08T10:16:49.549Z,96247.06
2023-03-08T10:19:43.844Z,96261.44
2023-03-08T10:22:32.281Z,96265.56
2023-03-08T10:25:33.026Z,96254.19
2023-03-08T10:28:22.017Z,96256.00
2023-03-08T10:31:42.397Z,96248.28
2023-03-08T10:34:32.912Z,96184.16
2023-03-08T10:37:21.359Z,96236.63
2023-03-08T10:40:10.105Z,96239.75
2023-03-08T10:43:00.951Z,96239.44
2023-03-08T10:45:56.794Z,96235.31
2023-03-08T10:48:42.303Z,96231.50
2023-03-08T10:51:29.191Z,96227.69
2023-03-08T10:54:15.548Z,96139.44
2023-03-08T10:57:02.806Z,96228.75
2023-03-08T10:59:50.203Z,96226.78
2023-03-08T11:02:35.883Z,96230.47
2023-03-08T11:05:24.034Z,96225.72
2023-03-08T11:08:17.817Z,96221.09
2023-03-08T11:11:09.560Z,96212.38
2023-03-08T11:13:55.362Z,96203.38
2023-03-08T11:16:53.010Z,96217.03
2023-03-08T11:19:51.800Z,96212.44
2023-03-08T11:22:49.049Z,96213.38
2023-03-08T11:25:44.379Z,96186.94
2023-03-08T11:28:47.610Z,96215.31
2023-03-08T11:31:53.781Z,96201.53
2023-03-08T11:34:50.381Z,96188.88
2023-03-08T11:37:50.262Z,96188.44
2023-03-08T11:40:59.230Z,96188.81
2023-03-08T11:44:06.215Z,96187.03
2023-03-08T11:46:51.277Z,96180.22
2023-03-08T11:49:46.087Z,96174.72
2023-03-08T11:53:04.162Z,96140.09
2023-03-08T11:56:30.931Z,96163.78
2023-03-08T11:59:44.484Z,96162.75
2023-03-08T12:02:35.720Z,96156.72
2023-03-08T12:05:30.444Z,96150.09
2023-03-08T12:08:25.251Z,96143.25
2023-03-08T12:11:22.231Z,96094.75
2023-03-08T12:14:17.153Z,96144.88
2023-03-08T12:17:12.055Z,96145.06
2023-03-08T12:19:58.210Z,96086.72
2023-03-08T12:23:04.216Z,96128.66
2023-03-08T12:25:58.305Z,96122.25
2023-03-08T12:29:02.081Z,96127.47
2023-03-08T12:31:48.789Z,96113.16
2023-03-08T12:34:39.933Z,96116.38
2023-03-08T12:37:29.986Z,96108.50
2023-03-08T12:40:35.003Z,96098.69
2023-03-08T12:43:20.322Z,96094.16
2023-03-08T12:46:08.680Z,96088.28
2023-03-08T12:48:54.285Z,96069.22
2023-03-08T12:51:41.488Z,96063.63
2023-03-08T12:54:30.361Z,96088.91
2023-03-08T12:57:22.321Z,96082.25
2023-03-08T13:00:32.271Z,96089.47
2023-03-08T13:03:35.908Z,96091.66
2023-03-08T13:06:24.460Z,96087.84
2023-03-08T13:09:18.875Z,96082.09
2023-03-08T13:12:16.861Z,96081.28
2023-03-08T13:15:28.620Z,96055.72
2023-03-08T13:18:20.383Z,96082.25
2023-03-08T13:21:28.607Z,96080.31
2023-03-08T13:24:24.194Z,96059.97
2023-03-08T13:27:15.628Z,96081.50
2023-03-08T13:30:37.532Z,96074.66
2023-03-08T13:33:25.887Z,96069.22
2023-03-08T13:36:19.241Z,96063.63
2023-03-08T13:39:07.824Z,96070.03
2023-03-08T13:41:53.823Z,96073.44
2023-03-08T13:44:39.235Z,96068.81
2023-03-08T13:47:26.990Z,96067.84
2023-03-08T13:50:29.459Z,96064.03
2023-03-08T13:53:20.046Z,96058.75
2023-03-08T13:56:06.391Z,96070.56
2023-03-08T13:58:54.788Z,96067.88
2023-03-08T14:01:47.282Z,96056.03
2023-03-08T14:04:34.846Z,96063.22
2023-03-08T14:07:28.695Z,96066.00
2023-03-08T14:10:14.667Z,96055.00
2023-03-08T14:13:00.329Z,96035.63
2023-03-08T14:15:52.494Z,96063.81
2023-03-08T14:18:42.374Z,96046.97
2023-03-08T14:21:29.954Z,96044.59
2023-03-08T14:24:21.483Z,96036.16
2023-03-08T14:27:16.328Z,96036.75
2023-03-08T14:30:10.326Z,96032.97
2023-03-08T14:32:59.704Z,96036.50
2023-03-08T14:35:53.914Z,96034.84
2023-03-08T14:38:39.412Z,96032.66
2023-03-08T14:41:34.575Z,96049.13
2023-03-08T14:44:26.410Z,96039.50
2023-03-08T14:47:35.708Z,96047.47
2023-03-08T14:50:31.468Z,96050.75
2023-03-08T14:53:35.801Z,96035.84
2023-03-08T14:56:21.247Z,96029.53
2023-03-08T14:59:08.047Z,96029.13
2023-03-08T15:01:54.385Z,96018.63
2023-03-08T15:04:40.618Z,96012.63
2023-03-08T15:07:31.672Z,96019.03
2023-03-08T15:10:43.902Z,96009.88
2023-03-08T15:13:29.003Z,95945.28
2023-03-08T15:16:14.828Z,96014.09
2023-03-08T15:19:00.282Z,96013.09
2023-03-08T15:21:45.813Z,96006.22
2023-03-08T15:24:31.897Z,95944.22
2023-03-08T15:27:17.234Z,96012.94
2023-03-08T15:30:03.215Z,95926.84
2023-03-08T15:32:49.822Z,95966.47
2023-03-08T15:35:34.878Z,95988.97
2023-03-08T15:38:20.623Z,95986.13
2023-03-08T15:41:06.100Z,95971.72
2023-03-08T15:43:51.286Z,95951.25
2023-03-08T15:46:36.997Z,95976.16
2023-03-08T15:49:22.330Z,95959.25
2023-03-08T15:52:08.894Z,95983.28
2023-03-08T15:54:57.022Z,95926.50
2023-03-08T15:57:42.470Z,95971.31
2023-03-08T16:00:28.368Z,95958.00
2023-03-08T16:03:13.978Z,95953.44
2023-03-08T16:05:59.426Z,95892.44
2023-03-08T16:08:45.482Z,95950.13
2023-03-08T16:11:32.883Z,95893.91
2023-03-08T16:14:18.364Z,95943.13
2023-03-08T16:17:04.582Z,95959.09
2023-03-08T16:19:49.723Z,95951.13
2023-03-08T16:22:35.091Z,95941.09
2023-03-08T16:25:20.769Z,95871.53
2023-03-08T16:28:06.205Z,95950.97
2023-03-08T16:30:51.805Z,95943.69
2023-03-08T16:33:36.932Z,95953.59
2023-03-08T16:36:25.119Z,95962.81
2023-03-08T16:39:10.887Z,95895.19
2023-03-08T16:41:56.098Z,95958.06
2023-03-08T16:44:47.537Z,95963.84
2023-03-08T16:47:33.373Z,95968.09
2023-03-08T16:50:19.037Z,95963.91
2023-03-08T16:53:05.092Z,95968.91
2023-03-08T16:55:50.437Z,95972.25
2023-03-08T16:58:38.028Z,95962.47
2023-03-08T17:01:24.084Z,95969.47
2023-03-08T17:04:12.336Z,95961.25
2023-03-08T17:06:57.648Z,95959.22
2023-03-08T17:09:43.660Z,95909.47
2023-03-08T17:12:28.965Z,95962.44
2023-03-08T17:15:14.128Z,95966.06
2023-03-08T17:22:07.775Z,95947.00
2023-03-08T17:24:54.792Z,95953.41
2023-03-08T17:27:41.656Z,95962.78
2023-03-08T17:30:27.080Z,95959.50
2023-03-08T17:33:12.702Z,95953.06
2023-03-08T17:35:58.184Z,95960.25
2023-03-08T17:38:43.329Z,95961.84
2023-03-08T17:41:28.913Z,95951.03
2023-03-08T17:44:14.655Z,95953.25
2023-03-08T17:47:00.811Z,95914.91
2023-03-08T17:49:46.114Z,95947.63
2023-03-08T17:52:31.540Z,95932.47
2023-03-08T17:55:17.261Z,95947.63
2023-03-08T17:58:02.268Z,95962.16
2023-03-08T18:00:47.747Z,95959.00
2023-03-08T18:03:33.910Z,95956.75
2023-03-08T18:06:25.219Z,95964.97
2023-03-08T18:09:14.099Z,95957.31
2023-03-08T18:11:59.628Z,95955.56
2023-03-08T18:14:44.838Z,95873.44
2023-03-08T18:17:30.022Z,95954.28
2023-03-08T18:20:15.500Z,95955.41
2023-03-08T18:23:01.041Z,95963.47
2023-03-08T18:25:46.523Z,95957.59
2023-03-08T18:28:32.009Z,95949.44
2023-03-08T18:31:20.683Z,95950.97
2023-03-08T18:34:07.359Z,95873.09
2023-03-08T18:36:54.445Z,95947.72
2023-03-08T18:39:40.953Z,95945.19
2023-03-08T18:42:26.843Z,95952.22
2023-03-08T18:45:12.463Z,95942.00
2023-03-08T18:47:58.036Z,95954.59
2023-03-08T18:50:43.308Z,95952.25
2023-03-08T18:53:28.707Z,95863.97
2023-03-08T18:56:14.421Z,95957.09
2023-03-08T18:59:01.716Z,95957.91
2023-03-08T19:01:47.582Z,95932.44
2023-03-08T19:04:39.095Z,95948.31
2023-03-08T19:07:26.661Z,95957.09
2023-03-08T19:10:12.074Z,95928.59
2023-03-08T19:12:57.279Z,95964.13
2023-03-08T19:15:45.854Z,95961.28
2023-03-08T19:18:31.177Z,95917.09
2023-03-08T19:21:22.667Z,95964.03
2023-03-08T19:24:12.570Z,95961.88
2023-03-08T19:26:59.708Z,95915.84
2023-03-08T19:29:45.640Z,95891.22
2023-03-08T19:32:31.289Z,95963.41
2023-03-08T19:35:16.771Z,95953.13
2023-03-08T19:38:02.165Z,95967.56
2023-03-08T19:40:47.574Z,95968.69
2023-03-08T19:43:32.873Z,95969.31
2023-03-08T19:46:18.495Z,95952.41
2023-03-08T19:49:05.694Z,95900.94
2023-03-08T19:51:53.926Z,95946.56
2023-03-08T19:54:39.484Z,95933.72
2023-03-08T19:57:26.178Z,95980.91
2023-03-08T20:00:12.000Z,95956.28
2023-03-08T20:02:57.356Z,95955.38
2023-03-08T20:05:45.857Z,95963.72
2023-03-08T20:08:31.387Z,95950.03
2023-03-08T20:11:16.878Z,95957.84
2023-03-08T20:14:03.206Z,95963.31
2023-03-08T20:16:50.469Z,95965.34
2023-03-08T20:19:35.885Z,95958.47
2023-03-08T20:22:21.322Z,95968.91
2023-03-08T20:25:07.650Z,95962.38
2023-03-08T20:27:53.232Z,95973.06
2023-03-08T20:30:39.538Z,95940.19
2023-03-08T20:33:24.934Z,95954.91
2023-03-08T20:36:10.469Z,95974.84
2023-03-08T20:38:57.598Z,95966.13
2023-03-08T20:41:43.160Z,95894.69
2023-03-08T20:44:28.162Z,95970.53
2023-03-08T20:47:13.870Z,95948.25
2023-03-08T20:49:59.735Z,95923.78
2023-03-08T20:52:46.353Z,95966.56
2023-03-08T20:55:33.002Z,95961.66
2023-03-08T20:58:18.624Z,95973.38
2023-03-08T21:01:19.049Z,95967.19
2023-03-08T21:04:05.615Z,95956.38
2023-03-08T21:06:51.109Z,95949.94
2023-03-08T21:09:36.438Z,95847.53
2023-03-08T21:12:21.773Z,95879.69
2023-03-08T21:15:07.721Z,95933.00
2023-03-08T21:17:53.037Z,95936.78
2023-03-08T21:20:38.597Z,95929.44
2023-03-08T21:23:23.891Z,95930.84
2023-03-08T21:26:09.223Z,95938.28
2023-03-08T21:29:04.532Z,95930.84
2023-03-08T21:31:52.295Z,95917.63
2023-03-08T21:34:39.478Z,95940.16
2023-03-08T21:37:24.760Z,95947.31
2023-03-08T21:40:10.868Z,95935.31
2023-03-08T21:42:56.117Z,95889.25
2023-03-08T21:45:42.409Z,95918.44
2023-03-08T21:48:27.625Z,95921.81
2023-03-08T21:51:16.814Z,95850.22
2023-03-08T21:54:02.367Z,95925.50
2023-03-08T21:56:47.759Z,95920.41
2023-03-08T21:59:33.318Z,95932.72
2023-03-08T22:02:18.519Z,95928.50
2023-03-08T22:05:04.314Z,95920.97
2023-03-08T22:07:49.716Z,95876.53
2023-03-08T22:10:34.800Z,95909.44
2023-03-08T22:13:20.773Z,95880.00
2023-03-08T22:16:06.524Z,95895.25
2023-03-08T22:18:53.703Z,95899.53
2023-03-08T22:21:39.371Z,95896.41
2023-03-08T22:24:24.945Z,95877.19
2023-03-08T22:27:10.449Z,95826.25
2023-03-08T22:29:55.919Z,95883.94
2023-03-08T22:32:41.556Z,95884.94
2023-03-08T22:35:26.911Z,95881.31
2023-03-08T22:38:12.011Z,95873.44
2023-03-08T22:40:57.189Z,95869.97
2023-03-08T22:43:43.469Z,95870.50
2023-03-08T22:46:28.884Z,95870.38
2023-03-08T22:49:16.960Z,95874.28
2023-03-08T22:52:02.727Z,95864.66
2023-03-08T22:54:48.067Z,95854.72
2023-03-08T22:57:36.780Z,95838.53
2023-03-08T23:00:22.361Z,95806.94
2023-03-08T23:03:07.705Z,95792.81
2023-03-08T23:05:53.614Z,95832.41
2023-03-08T23:08:38.702Z,95806.63
2023-03-08T23:11:24.506Z,95815.25
2023-03-08T23:14:11.498Z,95816.53
2023-03-08T23:16:57.315Z,95792.31
2023-03-08T23:19:44.187Z,95800.38
2023-03-08T23:22:29.688Z,95713.59
2023-03-08T23:25:15.070Z,95773.47
2023-03-08T23:28:00.527Z,95795.59
2023-03-08T23:30:45.957Z,95757.47
2023-03-08T23:33:31.473Z,95790.31
2023-03-08T23:36:20.408Z,95794.69
2023-03-08T23:39:05.502Z,95802.13
2023-03-08T23:41:50.805Z,95718.31
2023-03-08T23:44:37.922Z,95742.56
2023-03-08T23:47:23.082Z,95786.28
2023-03-08T23:50:09.195Z,95786.47
2023-03-08T23:52:54.498Z,95723.00
2023-03-08T23:55:41.008Z,95774.91
2023-03-08T23:58:26.406Z,95777.88
